sensor_id;sensor_type;location;lat;lon;timestamp;temperature;humidity
13711;DHT22;6927;51.256;9.410;2023-04-01T00:00:44;9.00;99.90
13711;DHT22;6927;51.256;9.410;2023-04-01T00:03:11;9.00;99.90
13711;DHT22;6927;51.256;9.410;2023-04-01T00:05:36;9.00;99.90
13711;DHT22;6927;51.256;9.410;2023-04-01T00:08:02;9.00;99.90
13711;DHT22;6927;51.256;9.410;2023-04-01T00:10:27;9.00;99.90
13711;DHT22;6927;51.256;9.410;2023-04-01T00:12:53;9.00;99.90
13711;DHT22;6927;51.256;9.410;2023-04-01T00:15:18;9.00;99.90
13711;DHT22;6927;51.256;9.410;2023-04-01T00:17:44;9.00;99.90
13711;DHT22;6927;51.256;9.410;2023-04-01T00:20:10;9.00;99.90
13711;DHT22;6927;51.256;9.410;2023-04-01T00:22:36;8.90;99.90
13711;DHT22;6927;51.256;9.410;2023-04-01T00:25:03;8.90;99.90
13711;DHT22;6927;51.256;9.410;2023-04-01T00:27:29;8.90;99.90
13711;DHT22;6927;51.256;9.410;2023-04-01T00:29:55;8.90;99.90
13711;DHT22;6927;51.256;9.410;2023-04-01T00:32:20;8.90;99.90
13711;DHT22;6927;51.256;9.410;2023-04-01T00:34:50;8.90;99.90
13711;DHT22;6927;51.256;9.410;2023-04-01T00:37:15;8.90;99.90
13711;DHT22;6927;51.256;9.410;2023-04-01T00:39:41;8.90;99.90
13711;DHT22;6927;51.256;9.410;2023-04-01T00:42:08;8.80;99.90
13711;DHT22;6927;51.256;9.410;2023-04-01T00:44:34;8.90;99.90
13711;DHT22;6927;51.256;9.410;2023-04-01T00:47:00;8.80;99.90
13711;DHT22;6927;51.256;9.410;2023-04-01T00:49:31;8.80;99.90
13711;DHT22;6927;51.256;9.410;2023-04-01T00:52:00;8.80;99.90
13711;DHT22;6927;51.256;9.410;2023-04-01T00:54:28;8.80;99.90
13711;DHT22;6927;51.256;9.410;2023-04-01T00:57:10;8.80;99.90
13711;DHT22;6927;51.256;9.410;2023-04-01T00:59:42;8.80;99.90
13711;DHT22;6927;51.256;9.410;2023-04-01T01:02:11;8.80;99.90
13711;DHT22;6927;51.256;9.410;2023-04-01T01:04:37;8.80;99.90
13711;DHT22;6927;51.256;9.410;2023-04-01T01:12:49;8.80;99.90
13711;DHT22;6927;51.256;9.410;2023-04-01T01:15:46;8.80;99.90
13711;DHT22;6927;51.256;9.410;2023-04-01T01:21:38;8.80;99.90
13711;DHT22;6927;51.256;9.410;2023-04-01T01:24:40;8.80;99.90
13711;DHT22;6927;51.256;9.410;2023-04-01T01:27:16;8.80;99.90
13711;DHT22;6927;51.256;9.410;2023-04-01T01:32:39;8.80;99.90
13711;DHT22;6927;51.256;9.410;2023-04-01T01:36:12;8.80;99.90
13711;DHT22;6927;51.256;9.410;2023-04-01T01:38:18;8.80;99.90
13711;DHT22;6927;51.256;9.410;2023-04-01T01:40:48;8.70;99.90
13711;DHT22;6927;51.256;9.410;2023-04-01T01:43:21;8.70;99.90
13711;DHT22;6927;51.256;9.410;2023-04-01T01:45:51;8.70;99.90
13711;DHT22;6927;51.256;9.410;2023-04-01T01:48:18;8.70;99.90
13711;DHT22;6927;51.256;9.410;2023-04-01T01:50:45;8.70;99.90
13711;DHT22;6927;51.256;9.410;2023-04-01T01:53:13;8.70;99.90
13711;DHT22;6927;51.256;9.410;2023-04-01T01:55:42;8.60;99.90
13711;DHT22;6927;51.256;9.410;2023-04-01T01:58:18;8.70;99.90
13711;DHT22;6927;51.256;9.410;2023-04-01T02:00:58;8.70;99.90
13711;DHT22;6927;51.256;9.410;2023-04-01T02:03:27;8.70;99.90
13711;DHT22;6927;51.256;9.410;2023-04-01T02:05:56;8.70;99.90
13711;DHT22;6927;51.256;9.410;2023-04-01T02:08:28;8.70;99.90
13711;DHT22;6927;51.256;9.410;2023-04-01T02:11:03;8.70;99.90
13711;DHT22;6927;51.256;9.410;2023-04-01T02:13:51;8.70;99.90
13711;DHT22;6927;51.256;9.410;2023-04-01T02:16:44;8.60;99.90
13711;DHT22;6927;51.256;9.410;2023-04-01T02:19:12;8.70;99.90
13711;DHT22;6927;51.256;9.410;2023-04-01T02:21:39;8.60;99.90
13711;DHT22;6927;51.256;9.410;2023-04-01T02:24:10;8.60;99.90
13711;DHT22;6927;51.256;9.410;2023-04-01T02:26:36;8.60;99.90
13711;DHT22;6927;51.256;9.410;2023-04-01T02:29:03;8.60;99.90
13711;DHT22;6927;51.256;9.410;2023-04-01T02:31:31;8.60;99.90
13711;DHT22;6927;51.256;9.410;2023-04-01T02:33:57;8.60;99.90
13711;DHT22;6927;51.256;9.410;2023-04-01T02:36:23;8.60;99.90
13711;DHT22;6927;51.256;9.410;2023-04-01T02:38:49;8.70;99.90
13711;DHT22;6927;51.256;9.410;2023-04-01T02:41:16;8.60;99.90
13711;DHT22;6927;51.256;9.410;2023-04-01T02:43:42;8.70;99.90
13711;DHT22;6927;51.256;9.410;2023-04-01T02:46:08;8.60;99.90
13711;DHT22;6927;51.256;9.410;2023-04-01T02:48:33;8.70;99.90
13711;DHT22;6927;51.256;9.410;2023-04-01T02:50:59;8.70;99.90
13711;DHT22;6927;51.256;9.410;2023-04-01T02:53:25;8.60;99.90
13711;DHT22;6927;51.256;9.410;2023-04-01T02:55:50;8.70;99.90
13711;DHT22;6927;51.256;9.410;2023-04-01T02:58:17;8.60;99.90
13711;DHT22;6927;51.256;9.410;2023-04-01T03:00:43;8.60;99.90
13711;DHT22;6927;51.256;9.410;2023-04-01T03:03:09;8.60;99.90
13711;DHT22;6927;51.256;9.410;2023-04-01T03:05:35;8.70;99.90
13711;DHT22;6927;51.256;9.410;2023-04-01T03:08:01;8.60;99.90
13711;DHT22;6927;51.256;9.410;2023-04-01T03:10:27;8.60;99.90
13711;DHT22;6927;51.256;9.410;2023-04-01T03:12:52;8.70;99.90
13711;DHT22;6927;51.256;9.410;2023-04-01T03:15:18;8.60;99.90
13711;DHT22;6927;51.256;9.410;2023-04-01T03:17:44;8.70;99.90
13711;DHT22;6927;51.256;9.410;2023-04-01T03:20:10;8.70;99.90
13711;DHT22;6927;51.256;9.410;2023-04-01T03:22:36;8.70;99.90
13711;DHT22;6927;51.256;9.410;2023-04-01T03:25:03;8.70;99.90
13711;DHT22;6927;51.256;9.410;2023-04-01T03:27:29;8.70;99.90
13711;DHT22;6927;51.256;9.410;2023-04-01T03:29:55;8.70;99.90
13711;DHT22;6927;51.256;9.410;2023-04-01T03:32:20;8.80;99.90
13711;DHT22;6927;51.256;9.410;2023-04-01T03:34:46;8.70;99.90
13711;DHT22;6927;51.256;9.410;2023-04-01T03:37:12;8.70;99.90
13711;DHT22;6927;51.256;9.410;2023-04-01T03:39:37;8.70;99.90
13711;DHT22;6927;51.256;9.410;2023-04-01T03:42:03;8.80;99.90
13711;DHT22;6927;51.256;9.410;2023-04-01T03:44:32;8.70;99.90
13711;DHT22;6927;51.256;9.410;2023-04-01T03:46:58;8.80;99.90
13711;DHT22;6927;51.256;9.410;2023-04-01T03:49:24;8.70;99.90
13711;DHT22;6927;51.256;9.410;2023-04-01T03:51:49;8.70;99.90
13711;DHT22;6927;51.256;9.410;2023-04-01T03:54:15;8.70;99.90
13711;DHT22;6927;51.256;9.410;2023-04-01T03:56:42;8.70;99.90
13711;DHT22;6927;51.256;9.410;2023-04-01T03:59:08;8.70;99.90
13711;DHT22;6927;51.256;9.410;2023-04-01T04:01:33;8.80;99.90
13711;DHT22;6927;51.256;9.410;2023-04-01T04:03:59;8.80;99.90
13711;DHT22;6927;51.256;9.410;2023-04-01T04:06:26;8.70;99.90
13711;DHT22;6927;51.256;9.410;2023-04-01T04:08:52;8.70;99.90
13711;DHT22;6927;51.256;9.410;2023-04-01T04:11:19;8.70;99.90
13711;DHT22;6927;51.256;9.410;2023-04-01T04:13:45;8.70;99.90
13711;DHT22;6927;51.256;9.410;2023-04-01T04:16:13;8.70;99.90
13711;DHT22;6927;51.256;9.410;2023-04-01T04:18:39;8.70;99.90
13711;DHT22;6927;51.256;9.410;2023-04-01T04:21:04;8.70;99.90
13711;DHT22;6927;51.256;9.410;2023-04-01T04:23:30;8.70;99.90
13711;DHT22;6927;51.256;9.410;2023-04-01T04:26:07;8.70;99.90
13711;DHT22;6927;51.256;9.410;2023-04-01T04:28:34;8.70;99.90
13711;DHT22;6927;51.256;9.410;2023-04-01T04:31:00;8.70;99.90
13711;DHT22;6927;51.256;9.410;2023-04-01T04:33:26;8.70;99.90
13711;DHT22;6927;51.256;9.410;2023-04-01T04:35:55;8.70;99.90
13711;DHT22;6927;51.256;9.410;2023-04-01T04:38:21;8.60;99.90
13711;DHT22;6927;51.256;9.410;2023-04-01T04:40:47;8.60;99.90
13711;DHT22;6927;51.256;9.410;2023-04-01T04:43:14;8.60;99.90
13711;DHT22;6927;51.256;9.410;2023-04-01T04:45:41;8.60;99.90
13711;DHT22;6927;51.256;9.410;2023-04-01T04:48:14;8.60;99.90
13711;DHT22;6927;51.256;9.410;2023-04-01T04:50:44;8.60;99.90
13711;DHT22;6927;51.256;9.410;2023-04-01T04:53:11;8.60;99.90
13711;DHT22;6927;51.256;9.410;2023-04-01T04:55:37;8.60;99.90
13711;DHT22;6927;51.256;9.410;2023-04-01T04:58:03;8.60;99.90
13711;DHT22;6927;51.256;9.410;2023-04-01T05:00:28;8.60;99.90
13711;DHT22;6927;51.256;9.410;2023-04-01T05:02:54;8.60;99.90
13711;DHT22;6927;51.256;9.410;2023-04-01T05:05:19;8.60;99.90
13711;DHT22;6927;51.256;9.410;2023-04-01T05:07:45;8.50;99.90
13711;DHT22;6927;51.256;9.410;2023-04-01T05:10:10;8.50;99.90
13711;DHT22;6927;51.256;9.410;2023-04-01T05:12:36;8.50;99.90
13711;DHT22;6927;51.256;9.410;2023-04-01T05:15:05;8.50;99.90
13711;DHT22;6927;51.256;9.410;2023-04-01T05:17:31;8.50;99.90
13711;DHT22;6927;51.256;9.410;2023-04-01T05:19:57;8.50;99.90
13711;DHT22;6927;51.256;9.410;2023-04-01T05:22:22;8.50;99.90
13711;DHT22;6927;51.256;9.410;2023-04-01T05:24:48;8.50;99.90
13711;DHT22;6927;51.256;9.410;2023-04-01T05:27:14;8.50;99.90
13711;DHT22;6927;51.256;9.410;2023-04-01T05:29:40;8.60;99.90
13711;DHT22;6927;51.256;9.410;2023-04-01T05:32:05;8.60;99.90
13711;DHT22;6927;51.256;9.410;2023-04-01T05:34:31;8.50;99.90
13711;DHT22;6927;51.256;9.410;2023-04-01T05:36:56;8.50;99.90
13711;DHT22;6927;51.256;9.410;2023-04-01T05:39:22;8.50;99.90
13711;DHT22;6927;51.256;9.410;2023-04-01T05:41:48;8.50;99.90
13711;DHT22;6927;51.256;9.410;2023-04-01T05:44:14;8.50;99.90
13711;DHT22;6927;51.256;9.410;2023-04-01T05:46:40;8.50;99.90
13711;DHT22;6927;51.256;9.410;2023-04-01T05:49:06;8.40;99.90
13711;DHT22;6927;51.256;9.410;2023-04-01T05:51:31;8.40;99.90
13711;DHT22;6927;51.256;9.410;2023-04-01T05:53:57;8.40;99.90
13711;DHT22;6927;51.256;9.410;2023-04-01T05:56:22;8.40;99.90
13711;DHT22;6927;51.256;9.410;2023-04-01T05:58:51;8.30;99.90
13711;DHT22;6927;51.256;9.410;2023-04-01T06:01:17;8.30;99.90
13711;DHT22;6927;51.256;9.410;2023-04-01T06:03:44;8.30;99.90
13711;DHT22;6927;51.256;9.410;2023-04-01T06:06:23;8.30;99.90
13711;DHT22;6927;51.256;9.410;2023-04-01T06:08:49;8.30;99.90
13711;DHT22;6927;51.256;9.410;2023-04-01T06:11:37;8.30;99.90
13711;DHT22;6927;51.256;9.410;2023-04-01T06:25:22;8.30;99.90
13711;DHT22;6927;51.256;9.410;2023-04-01T06:28:07;8.40;99.90
13711;DHT22;6927;51.256;9.410;2023-04-01T06:30:47;8.40;99.90
13711;DHT22;6927;51.256;9.410;2023-04-01T06:33:27;8.40;99.90
13711;DHT22;6927;51.256;9.410;2023-04-01T06:41:36;8.50;99.90
13711;DHT22;6927;51.256;9.410;2023-04-01T06:47:34;8.50;99.90
13711;DHT22;6927;51.256;9.410;2023-04-01T06:53:25;8.50;99.90
13711;DHT22;6927;51.256;9.410;2023-04-01T06:55:57;8.50;99.90
13711;DHT22;6927;51.256;9.410;2023-04-01T06:58:35;8.50;99.90
13711;DHT22;6927;51.256;9.410;2023-04-01T07:01:07;8.50;99.90
13711;DHT22;6927;51.256;9.410;2023-04-01T07:03:40;8.60;99.90
13711;DHT22;6927;51.256;9.410;2023-04-01T07:06:14;8.60;99.90
13711;DHT22;6927;51.256;9.410;2023-04-01T07:08:44;8.60;99.90
13711;DHT22;6927;51.256;9.410;2023-04-01T07:11:16;8.60;99.90
13711;DHT22;6927;51.256;9.410;2023-04-01T07:13:54;8.70;99.90
13711;DHT22;6927;51.256;9.410;2023-04-01T07:16:34;8.70;99.90
13711;DHT22;6927;51.256;9.410;2023-04-01T07:19:10;8.70;99.90
13711;DHT22;6927;51.256;9.410;2023-04-01T07:21:51;8.70;99.90
13711;DHT22;6927;51.256;9.410;2023-04-01T07:24:33;8.70;99.90
13711;DHT22;6927;51.256;9.410;2023-04-01T07:26:59;8.70;99.90
13711;DHT22;6927;51.256;9.410;2023-04-01T07:29:26;8.70;99.90
13711;DHT22;6927;51.256;9.410;2023-04-01T07:35:13;8.80;99.90
13711;DHT22;6927;51.256;9.410;2023-04-01T07:38:08;8.80;99.90
13711;DHT22;6927;51.256;9.410;2023-04-01T07:40:55;8.80;99.90
13711;DHT22;6927;51.256;9.410;2023-04-01T07:46:33;8.90;99.90
13711;DHT22;6927;51.256;9.410;2023-04-01T07:52:06;9.00;99.90
13711;DHT22;6927;51.256;9.410;2023-04-01T07:54:57;9.00;99.90
13711;DHT22;6927;51.256;9.410;2023-04-01T08:00:19;9.00;99.90
13711;DHT22;6927;51.256;9.410;2023-04-01T08:03:28;8.90;99.90
13711;DHT22;6927;51.256;9.410;2023-04-01T08:05:56;9.00;99.90
13711;DHT22;6927;51.256;9.410;2023-04-01T08:08:44;9.10;99.90
13711;DHT22;6927;51.256;9.410;2023-04-01T08:23:14;9.30;99.90
13711;DHT22;6927;51.256;9.410;2023-04-01T08:25:47;9.40;99.90
13711;DHT22;6927;51.256;9.410;2023-04-01T08:28:24;9.50;99.90
13711;DHT22;6927;51.256;9.410;2023-04-01T08:31:09;9.50;99.90
13711;DHT22;6927;51.256;9.410;2023-04-01T08:33:36;9.60;99.90
13711;DHT22;6927;51.256;9.410;2023-04-01T08:36:08;9.60;99.90
13711;DHT22;6927;51.256;9.410;2023-04-01T08:38:42;9.60;99.90
13711;DHT22;6927;51.256;9.410;2023-04-01T08:57:43;9.80;99.90
13711;DHT22;6927;51.256;9.410;2023-04-01T09:11:28;10.20;99.90
13711;DHT22;6927;51.256;9.410;2023-04-01T09:16:58;10.40;99.90
13711;DHT22;6927;51.256;9.410;2023-04-01T09:25:22;10.40;99.90
13711;DHT22;6927;51.256;9.410;2023-04-01T09:35:50;10.30;99.90
13711;DHT22;6927;51.256;9.410;2023-04-01T09:41:52;10.20;99.90
13711;DHT22;6927;51.256;9.410;2023-04-01T09:44:34;10.20;99.90
13711;DHT22;6927;51.256;9.410;2023-04-01T09:52:44;10.60;99.90
13711;DHT22;6927;51.256;9.410;2023-04-01T09:58:19;10.50;99.90
13711;DHT22;6927;51.256;9.410;2023-04-01T10:06:27;10.60;99.90
13711;DHT22;6927;51.256;9.410;2023-04-01T10:12:36;10.50;99.90
13711;DHT22;6927;51.256;9.410;2023-04-01T10:20:58;10.30;99.90
13711;DHT22;6927;51.256;9.410;2023-04-01T10:48:40;10.40;99.90
13711;DHT22;6927;51.256;9.410;2023-04-01T10:54:30;10.60;99.90
13711;DHT22;6927;51.256;9.410;2023-04-01T10:57:23;10.70;99.90
13711;DHT22;6927;51.256;9.410;2023-04-01T11:03:11;10.90;99.90
13711;DHT22;6927;51.256;9.410;2023-04-01T11:09:09;11.00;99.90
13711;DHT22;6927;51.256;9.410;2023-04-01T11:15:15;11.10;99.90
13711;DHT22;6927;51.256;9.410;2023-04-01T11:28:21;11.20;99.90
13711;DHT22;6927;51.256;9.410;2023-04-01T11:31:04;11.10;99.90
13711;DHT22;6927;51.256;9.410;2023-04-01T11:36:22;11.20;99.90
13711;DHT22;6927;51.256;9.410;2023-04-01T11:39:17;11.20;99.90
13711;DHT22;6927;51.256;9.410;2023-04-01T11:42:11;11.10;99.90
13711;DHT22;6927;51.256;9.410;2023-04-01T11:44:46;10.80;99.90
13711;DHT22;6927;51.256;9.410;2023-04-01T11:59:48;10.60;99.90
13711;DHT22;6927;51.256;9.410;2023-04-01T12:02:55;10.70;99.90
13711;DHT22;6927;51.256;9.410;2023-04-01T12:11:15;10.90;99.90
13711;DHT22;6927;51.256;9.410;2023-04-01T12:17:30;10.80;99.90
13711;DHT22;6927;51.256;9.410;2023-04-01T12:22:34;11.00;99.90
13711;DHT22;6927;51.256;9.410;2023-04-01T12:28:21;11.20;99.90
13711;DHT22;6927;51.256;9.410;2023-04-01T12:50:45;10.70;99.90
13711;DHT22;6927;51.256;9.410;2023-04-01T12:59:27;10.80;99.90
13711;DHT22;6927;51.256;9.410;2023-04-01T13:10:24;10.70;99.90
13711;DHT22;6927;51.256;9.410;2023-04-01T13:13:18;10.60;99.90
13711;DHT22;6927;51.256;9.410;2023-04-01T13:27:25;10.50;99.90
13711;DHT22;6927;51.256;9.410;2023-04-01T13:32:47;10.30;99.90
13711;DHT22;6927;51.256;9.410;2023-04-01T13:35:20;10.20;99.90
13711;DHT22;6927;51.256;9.410;2023-04-01T13:41:09;10.20;99.90
13711;DHT22;6927;51.256;9.410;2023-04-01T13:43:47;10.10;99.90
13711;DHT22;6927;51.256;9.410;2023-04-01T13:55:20;10.20;99.90
13711;DHT22;6927;51.256;9.410;2023-04-01T13:58:05;10.20;99.90
13711;DHT22;6927;51.256;9.410;2023-04-01T14:01:15;10.30;99.90
13711;DHT22;6927;51.256;9.410;2023-04-01T14:09:38;10.30;99.90
13711;DHT22;6927;51.256;9.410;2023-04-01T14:20:40;10.50;99.90
13711;DHT22;6927;51.256;9.410;2023-04-01T14:26:22;10.30;99.90
13711;DHT22;6927;51.256;9.410;2023-04-01T14:34:37;10.20;99.90
13711;DHT22;6927;51.256;9.410;2023-04-01T14:37:22;10.30;99.90
13711;DHT22;6927;51.256;9.410;2023-04-01T14:48:28;10.30;99.90
13711;DHT22;6927;51.256;9.410;2023-04-01T14:51:03;10.40;99.90
13711;DHT22;6927;51.256;9.410;2023-04-01T14:53:33;10.40;99.90
13711;DHT22;6927;51.256;9.410;2023-04-01T14:56:01;10.30;99.90
13711;DHT22;6927;51.256;9.410;2023-04-01T14:58:49;10.40;99.90
13711;DHT22;6927;51.256;9.410;2023-04-01T15:01:32;10.50;99.90
13711;DHT22;6927;51.256;9.410;2023-04-01T15:07:27;10.80;99.90
13711;DHT22;6927;51.256;9.410;2023-04-01T15:10:30;10.90;99.90
13711;DHT22;6927;51.256;9.410;2023-04-01T15:24:26;10.70;99.90
13711;DHT22;6927;51.256;9.410;2023-04-01T15:27:18;10.60;99.90
13711;DHT22;6927;51.256;9.410;2023-04-01T15:35:09;10.50;99.90
13711;DHT22;6927;51.256;9.410;2023-04-01T15:48:51;10.40;99.90
13711;DHT22;6927;51.256;9.410;2023-04-01T15:51:45;10.40;99.90
13711;DHT22;6927;51.256;9.410;2023-04-01T16:02:45;10.30;99.90
13711;DHT22;6927;51.256;9.410;2023-04-01T16:05:30;10.30;99.90
13711;DHT22;6927;51.256;9.410;2023-04-01T16:08:23;10.30;99.90
13711;DHT22;6927;51.256;9.410;2023-04-01T16:14:05;10.30;99.90
13711;DHT22;6927;51.256;9.410;2023-04-01T16:17:09;10.30;99.90
13711;DHT22;6927;51.256;9.410;2023-04-01T16:19:44;10.30;99.90
13711;DHT22;6927;51.256;9.410;2023-04-01T16:22:32;10.20;99.90
13711;DHT22;6927;51.256;9.410;2023-04-01T16:25:20;10.20;99.90
13711;DHT22;6927;51.256;9.410;2023-04-01T16:27:54;10.20;99.90
13711;DHT22;6927;51.256;9.410;2023-04-01T16:30:37;10.10;99.90
13711;DHT22;6927;51.256;9.410;2023-04-01T16:33:24;10.00;99.90
13711;DHT22;6927;51.256;9.410;2023-04-01T16:36:19;9.90;99.90
13711;DHT22;6927;51.256;9.410;2023-04-01T16:44:54;9.70;99.90
13711;DHT22;6927;51.256;9.410;2023-04-01T16:47:29;9.80;99.90
13711;DHT22;6927;51.256;9.410;2023-04-01T16:53:09;9.70;99.90
13711;DHT22;6927;51.256;9.410;2023-04-01T17:01:07;9.70;99.90
13711;DHT22;6927;51.256;9.410;2023-04-01T17:06:28;9.70;99.90
13711;DHT22;6927;51.256;9.410;2023-04-01T17:11:44;9.70;99.90
13711;DHT22;6927;51.256;9.410;2023-04-01T17:14:29;9.70;99.90
13711;DHT22;6927;51.256;9.410;2023-04-01T17:17:19;9.60;99.90
13711;DHT22;6927;51.256;9.410;2023-04-01T17:20:08;9.70;99.90
13711;DHT22;6927;51.256;9.410;2023-04-01T17:22:58;9.60;99.90
13711;DHT22;6927;51.256;9.410;2023-04-01T17:33:47;9.50;99.90
13711;DHT22;6927;51.256;9.410;2023-04-01T17:42:42;9.40;99.90
13711;DHT22;6927;51.256;9.410;2023-04-01T17:45:21;9.40;99.90
13711;DHT22;6927;51.256;9.410;2023-04-01T17:48:41;9.40;99.90
13711;DHT22;6927;51.256;9.410;2023-04-01T17:51:24;9.40;99.90
13711;DHT22;6927;51.256;9.410;2023-04-01T17:54:05;9.40;99.90
13711;DHT22;6927;51.256;9.410;2023-04-01T17:56:55;9.40;99.90
13711;DHT22;6927;51.256;9.410;2023-04-01T17:59:49;9.40;99.90
13711;DHT22;6927;51.256;9.410;2023-04-01T18:05:40;9.40;99.90
13711;DHT22;6927;51.256;9.410;2023-04-01T18:10:51;9.40;99.90
13711;DHT22;6927;51.256;9.410;2023-04-01T18:19:06;9.40;99.90
13711;DHT22;6927;51.256;9.410;2023-04-01T18:21:36;9.40;99.90
13711;DHT22;6927;51.256;9.410;2023-04-01T18:26:46;9.40;99.90
13711;DHT22;6927;51.256;9.410;2023-04-01T18:32:11;9.50;99.90
13711;DHT22;6927;51.256;9.410;2023-04-01T18:34:52;9.40;99.90
13711;DHT22;6927;51.256;9.410;2023-04-01T18:37:28;9.40;99.90
13711;DHT22;6927;51.256;9.410;2023-04-01T18:45:28;9.40;99.90
13711;DHT22;6927;51.256;9.410;2023-04-01T18:48:16;9.40;99.90
13711;DHT22;6927;51.256;9.410;2023-04-01T18:50:57;9.40;99.90
13711;DHT22;6927;51.256;9.410;2023-04-01T18:59:04;9.40;99.90
13711;DHT22;6927;51.256;9.410;2023-04-01T19:02:14;9.30;99.90
13711;DHT22;6927;51.256;9.410;2023-04-01T19:05:00;9.30;99.90
13711;DHT22;6927;51.256;9.410;2023-04-01T19:10:31;9.30;99.90
13711;DHT22;6927;51.256;9.410;2023-04-01T19:16:12;9.20;99.90
13711;DHT22;6927;51.256;9.410;2023-04-01T19:18:42;9.10;99.90
13711;DHT22;6927;51.256;9.410;2023-04-01T19:21:16;9.10;99.90
13711;DHT22;6927;51.256;9.410;2023-04-01T19:23:50;9.10;99.90
13711;DHT22;6927;51.256;9.410;2023-04-01T19:34:48;9.00;99.90
13711;DHT22;6927;51.256;9.410;2023-04-01T19:37:22;8.90;99.90
13711;DHT22;6927;51.256;9.410;2023-04-01T19:42:33;8.90;99.90
13711;DHT22;6927;51.256;9.410;2023-04-01T19:57:53;8.80;99.90
13711;DHT22;6927;51.256;9.410;2023-04-01T20:07:52;8.80;99.90
13711;DHT22;6927;51.256;9.410;2023-04-01T20:10:44;8.80;99.90
13711;DHT22;6927;51.256;9.410;2023-04-01T20:15:45;8.90;99.90
13711;DHT22;6927;51.256;9.410;2023-04-01T20:18:23;8.80;99.90
13711;DHT22;6927;51.256;9.410;2023-04-01T20:20:57;8.90;99.90
13711;DHT22;6927;51.256;9.410;2023-04-01T20:23:39;8.80;99.90
13711;DHT22;6927;51.256;9.410;2023-04-01T20:26:22;8.80;99.90
13711;DHT22;6927;51.256;9.410;2023-04-01T20:29:15;8.80;99.90
13711;DHT22;6927;51.256;9.410;2023-04-01T20:40:40;8.80;99.90
13711;DHT22;6927;51.256;9.410;2023-04-01T20:46:40;8.80;99.90
13711;DHT22;6927;51.256;9.410;2023-04-01T20:54:48;8.70;99.90
13711;DHT22;6927;51.256;9.410;2023-04-01T20:57:58;8.70;99.90
13711;DHT22;6927;51.256;9.410;2023-04-01T21:11:35;8.70;99.90
13711;DHT22;6927;51.256;9.410;2023-04-01T21:19:49;8.70;99.90
13711;DHT22;6927;51.256;9.410;2023-04-01T21:22:50;8.70;99.90
13711;DHT22;6927;51.256;9.410;2023-04-01T21:25:43;8.70;99.90
13711;DHT22;6927;51.256;9.410;2023-04-01T21:28:49;8.70;99.90
13711;DHT22;6927;51.256;9.410;2023-04-01T21:34:42;8.60;99.90
13711;DHT22;6927;51.256;9.410;2023-04-01T21:37:42;8.60;99.90
13711;DHT22;6927;51.256;9.410;2023-04-01T21:51:53;8.50;99.90
13711;DHT22;6927;51.256;9.410;2023-04-01T21:57:22;8.50;99.90
13711;DHT22;6927;51.256;9.410;2023-04-01T22:16:32;8.50;99.90
13711;DHT22;6927;51.256;9.410;2023-04-01T22:19:05;8.40;99.90
13711;DHT22;6927;51.256;9.410;2023-04-01T22:21:44;8.30;99.90
13711;DHT22;6927;51.256;9.410;2023-04-01T22:27:20;8.30;99.90
13711;DHT22;6927;51.256;9.410;2023-04-01T22:32:50;8.20;99.90
13711;DHT22;6927;51.256;9.410;2023-04-01T22:38:51;8.10;99.90
13711;DHT22;6927;51.256;9.410;2023-04-01T22:41:05;8.00;99.90
13711;DHT22;6927;51.256;9.410;2023-04-01T22:43:42;8.00;99.90
13711;DHT22;6927;51.256;9.410;2023-04-01T22:48:42;7.90;99.90
13711;DHT22;6927;51.256;9.410;2023-04-01T22:51:38;7.90;99.90
13711;DHT22;6927;51.256;9.410;2023-04-01T22:54:13;7.80;99.90
13711;DHT22;6927;51.256;9.410;2023-04-01T22:56:45;7.80;99.90
13711;DHT22;6927;51.256;9.410;2023-04-01T22:59:22;7.70;99.90
13711;DHT22;6927;51.256;9.410;2023-04-01T23:02:09;7.70;99.90
13711;DHT22;6927;51.256;9.410;2023-04-01T23:04:40;7.70;99.90
13711;DHT22;6927;51.256;9.410;2023-04-01T23:10:42;7.50;99.90
13711;DHT22;6927;51.256;9.410;2023-04-01T23:13:17;7.50;99.90
13711;DHT22;6927;51.256;9.410;2023-04-01T23:15:45;7.40;99.90
13711;DHT22;6927;51.256;9.410;2023-04-01T23:23:38;7.30;99.90
13711;DHT22;6927;51.256;9.410;2023-04-01T23:26:14;7.30;99.90
13711;DHT22;6927;51.256;9.410;2023-04-01T23:28:48;7.30;99.90
13711;DHT22;6927;51.256;9.410;2023-04-01T23:34:17;7.20;99.90
13711;DHT22;6927;51.256;9.410;2023-04-01T23:36:48;7.20;99.90
13711;DHT22;6927;51.256;9.410;2023-04-01T23:39:25;7.10;99.90
13711;DHT22;6927;51.256;9.410;2023-04-01T23:41:54;7.10;99.90
13711;DHT22;6927;51.256;9.410;2023-04-01T23:44:24;7.00;99.90
13711;DHT22;6927;51.256;9.410;2023-04-01T23:46:51;7.00;99.90
13711;DHT22;6927;51.256;9.410;2023-04-01T23:49:23;7.00;99.90
13711;DHT22;6927;51.256;9.410;2023-04-01T23:51:58;6.90;99.90
13711;DHT22;6927;51.256;9.410;2023-04-01T23:54:54;6.90;99.90
13711;DHT22;6927;51.256;9.410;2023-04-01T23:57:28;6.80;99.90
